Time;durP1;ratioP1;P1;durP2;ratioP2;P2;SDS_P1;SDS_P2;PMS_P1;PMS_P2;Temp;Humidity;BMP_temperature;BMP_pressure;BME280_temperature;BME280_humidity;BME280_pressure;Samples;Min_cycle;Max_cycle;Signal;HPM_P1;HPM_P2
2022/10/08 00:01:00;;;;;;;1.30;1.20;;;;;;;12.45;100.00;100488.63;5031075;28;20545;-54
2022/10/08 00:03:30;;;;;;;1.73;1.63;;;;;;;12.45;100.00;100491.31;5023869;28;20482;-55
2022/10/08 00:06:05;;;;;;;1.77;1.40;;;;;;;12.45;100.00;100494.84;5030549;28;21030;-54
2022/10/08 00:08:37;;;;;;;4.43;2.13;;;;;;;12.57;100.00;100496.22;5030852;28;20454;-54
2022/10/08 00:11:10;;;;;;;1.70;1.60;;;;;;;12.58;100.00;100491.78;5029318;28;21014;-54
2022/10/08 00:13:42;;;;;;;1.43;1.33;;;;;;;12.55;100.00;100487.41;5007939;28;20457;-55
2022/10/08 00:16:11;;;;;;;2.73;2.50;;;;;;;12.55;100.00;100491.88;5023902;28;20464;-56
2022/10/08 00:18:39;;;;;;;16.40;3.70;;;;;;;12.64;100.00;100488.91;5023594;28;20452;-53
2022/10/08 00:21:14;;;;;;;5.83;1.77;;;;;;;12.60;100.00;100490.78;4996957;28;20993;-55
2022/10/08 00:23:42;;;;;;;1.70;1.23;;;;;;;12.58;100.00;100487.31;5024920;28;20517;-53
2022/10/08 00:26:10;;;;;;;9.80;2.30;;;;;;;12.59;100.00;100486.38;5030565;28;20451;-54
2022/10/08 00:28:37;;;;;;;1.27;1.10;;;;;;;12.65;100.00;100483.53;5030396;28;20456;-55
2022/10/08 00:31:13;;;;;;;2.10;2.00;;;;;;;12.68;100.00;100487.88;5018798;28;20460;-53
2022/10/08 00:33:40;;;;;;;2.70;2.17;;;;;;;12.61;100.00;100481.00;5030764;28;20597;-55
2022/10/08 00:36:11;;;;;;;8.63;2.20;;;;;;;12.64;100.00;100484.44;5029849;28;20537;-55
2022/10/08 00:38:38;;;;;;;5.33;2.10;;;;;;;12.70;100.00;100488.69;5030149;28;20502;-55
2022/10/08 00:41:07;;;;;;;3.70;2.30;;;;;;;12.69;100.00;100485.16;5029158;28;20996;-54
2022/10/08 00:43:50;;;;;;;3.40;2.27;;;;;;;12.68;100.00;100488.75;5023963;28;20462;-55
2022/10/08 00:46:22;;;;;;;2.30;2.20;;;;;;;12.61;100.00;100478.31;5029780;28;20447;-54
2022/10/08 00:49:12;;;;;;;4.23;1.50;;;;;;;12.66;100.00;100489.72;5006423;28;20452;-54
2022/10/08 00:51:49;;;;;;;3.13;2.93;;;;;;;12.70;100.00;100489.56;4993732;28;20467;-54
2022/10/08 00:54:18;;;;;;;1.10;1.10;;;;;;;12.62;100.00;100490.75;5029824;28;20578;-55
2022/10/08 00:56:48;;;;;;;6.73;1.43;;;;;;;12.60;100.00;100492.59;5023128;28;21033;-56
2022/10/08 00:59:15;;;;;;;4.97;2.50;;;;;;;12.64;100.00;100494.25;5023306;28;20566;-54
2022/10/08 01:01:42;;;;;;;10.57;1.37;;;;;;;12.62;100.00;100504.97;5022765;28;20575;-53
2022/10/08 01:04:11;;;;;;;1.80;1.70;;;;;;;12.57;100.00;100498.03;5024038;28;20530;-53
2022/10/08 01:06:50;;;;;;;1.53;1.43;;;;;;;12.58;100.00;100505.09;5029664;28;20472;-53
2022/10/08 01:09:43;;;;;;;4.20;1.50;;;;;;;12.23;100.00;100498.28;5029590;28;20443;-54
2022/10/08 01:12:23;;;;;;;7.40;1.97;;;;;;;12.22;100.00;100484.06;5009570;28;20949;-53
2022/10/08 01:15:00;;;;;;;1.43;1.33;;;;;;;12.07;100.00;100484.56;5018183;28;20448;-54
2022/10/08 01:17:37;;;;;;;6.57;2.27;;;;;;;12.22;100.00;100481.41;5029159;28;20581;-54
2022/10/08 01:20:24;;;;;;;1.60;1.43;;;;;;;11.95;100.00;100482.28;5028463;28;20549;-54
2022/10/08 01:23:12;;;;;;;2.10;1.50;;;;;;;11.89;100.00;100472.69;5005035;28;20532;-53
2022/10/08 01:25:54;;;;;;;2.70;1.50;;;;;;;11.82;100.00;100485.31;5020606;28;20456;-54
2022/10/08 01:28:30;;;;;;;66.73;3.13;;;;;;;11.75;100.00;100477.53;5015288;28;20472;-53
2022/10/08 01:31:06;;;;;;;1.10;1.00;;;;;;;11.74;100.00;100481.97;5005346;28;20447;-54
2022/10/08 01:34:05;;;;;;;16.83;3.33;;;;;;;11.58;100.00;100475.38;5029171;28;20451;-54
2022/10/08 01:36:37;;;;;;;1.30;1.20;;;;;;;11.42;100.00;100474.94;5011371;28;20475;-52
2022/10/08 01:39:09;;;;;;;1.50;1.40;;;;;;;11.27;100.00;100476.28;5018598;28;20967;-54
2022/10/08 01:41:37;;;;;;;0.77;0.77;;;;;;;11.27;100.00;100488.69;5029025;28;20545;-53
2022/10/08 01:44:11;;;;;;;1.03;0.93;;;;;;;11.32;100.00;100492.09;5011677;28;20459;-54
2022/10/08 01:46:41;;;;;;;9.80;1.40;;;;;;;11.03;100.00;100494.69;5028797;28;20471;-53
2022/10/08 01:49:13;;;;;;;2.33;1.27;;;;;;;10.73;100.00;100483.09;5028736;28;20952;-54
2022/10/08 01:51:48;;;;;;;2.20;1.23;;;;;;;10.81;100.00;100483.75;5022627;28;20999;-53
2022/10/08 01:54:16;;;;;;;1.37;1.27;;;;;;;11.03;100.00;100487.59;5007267;28;20456;-52
2022/10/08 01:56:44;;;;;;;2.03;1.10;;;;;;;10.80;100.00;100493.50;5026585;28;21087;-54
2022/10/08 01:59:16;;;;;;;0.80;0.70;;;;;;;10.54;100.00;100480.88;5028746;28;20497;-54
2022/10/08 02:01:57;;;;;;;0.90;0.77;;;;;;;10.64;100.00;100486.84;5003262;28;20491;-54
2022/10/08 02:04:32;;;;;;;1.13;1.03;;;;;;;10.64;100.00;100498.34;5026897;28;20447;-54
2022/10/08 02:07:03;;;;;;;5.03;2.27;;;;;;;10.52;100.00;100498.66;5019653;28;20501;-54
2022/10/08 02:09:34;;;;;;;2.70;0.73;;;;;;;10.88;100.00;100496.84;5028596;28;20451;-54
2022/10/08 02:12:01;;;;;;;8.23;2.17;;;;;;;10.68;100.00;100496.47;5024543;28;20546;-54
2022/10/08 02:14:30;;;;;;;0.80;0.60;;;;;;;10.61;100.00;100487.81;5020747;28;20911;-54
2022/10/08 02:17:05;;;;;;;1.40;1.00;;;;;;;10.53;100.00;100488.91;5028626;28;20494;-54
2022/10/08 02:19:51;;;;;;;15.50;1.47;;;;;;;10.51;100.00;100488.94;5008389;28;20513;-52
2022/10/08 02:22:22;;;;;;;6.90;1.43;;;;;;;10.52;100.00;100487.16;5028210;28;20452;-54
2022/10/08 02:24:54;;;;;;;5.43;1.67;;;;;;;10.55;100.00;100482.66;5021836;28;20467;-53
2022/10/08 02:27:28;;;;;;;5.50;0.77;;;;;;;10.36;100.00;100478.69;5026932;28;20525;-52
2022/10/08 02:30:13;;;;;;;1.80;1.70;;;;;;;10.38;100.00;100485.72;5013263;28;20497;-54
2022/10/08 02:33:14;;;;;;;4.20;1.20;;;;;;;10.43;100.00;100472.34;5005742;28;20827;-53
2022/10/08 02:35:50;;;;;;;2.00;1.33;;;;;;;10.47;100.00;100474.00;4991326;28;20517;-54
2022/10/08 02:38:22;;;;;;;2.30;0.97;;;;;;;10.46;100.00;100466.94;5028170;28;20474;-54
2022/10/08 02:40:53;;;;;;;1.30;1.20;;;;;;;10.46;100.00;100477.56;5023464;28;20999;-52
2022/10/08 02:43:25;;;;;;;2.13;1.40;;;;;;;10.48;100.00;100483.72;5019728;28;20443;-54
2022/10/08 02:46:00;;;;;;;0.90;0.90;;;;;;;10.34;100.00;100478.75;5022818;28;20448;-55
2022/10/08 02:48:31;;;;;;;8.20;1.73;;;;;;;10.27;100.00;100489.53;5026654;28;20528;-53
2022/10/08 02:51:05;;;;;;;1.63;1.20;;;;;;;10.18;100.00;100485.31;5028176;28;20447;-54
2022/10/08 02:53:34;;;;;;;2.03;1.70;;;;;;;10.09;100.00;100482.84;5028276;28;20510;-55
2022/10/08 02:56:13;;;;;;;1.10;0.83;;;;;;;10.02;100.00;100481.28;5028442;28;20907;-54
2022/10/08 02:58:42;;;;;;;1.20;0.90;;;;;;;10.09;100.00;100493.47;5038338;23;20515;-56
2022/10/08 03:01:14;;;;;;;1.13;0.70;;;;;;;9.87;100.00;100482.50;5037093;28;20502;-56
2022/10/08 03:03:47;;;;;;;2.60;1.73;;;;;;;9.95;100.00;100482.31;5037599;28;20467;-55
2022/10/08 03:06:17;;;;;;;2.40;1.23;;;;;;;9.89;100.00;100490.44;5043996;28;21011;-56
2022/10/08 03:08:48;;;;;;;2.53;1.73;;;;;;;9.90;100.00;100489.50;5023292;28;20629;-56
2022/10/08 03:11:15;;;;;;;0.87;0.83;;;;;;;10.00;100.00;100501.66;5032156;28;20447;-56
2022/10/08 03:13:45;;;;;;;1.13;0.93;;;;;;;9.92;100.00;100496.53;4992997;28;20456;-56
2022/10/08 03:16:17;;;;;;;0.90;0.90;;;;;;;9.98;100.00;100487.53;5031262;28;20887;-55
2022/10/08 03:18:43;;;;;;;1.07;0.80;;;;;;;9.91;100.00;100489.47;5030817;28;20537;-55
2022/10/08 03:21:13;;;;;;;0.93;0.87;;;;;;;9.88;100.00;100496.66;5031964;28;20495;-56
2022/10/08 03:23:40;;;;;;;1.03;0.90;;;;;;;9.78;100.00;100495.97;5031628;28;20505;-56
2022/10/08 03:26:06;;;;;;;7.37;2.27;;;;;;;9.82;100.00;100494.97;5024777;28;20526;-55
2022/10/08 03:28:32;;;;;;;5.67;0.97;;;;;;;9.87;100.00;100501.09;5025892;28;20955;-55
2022/10/08 03:31:04;;;;;;;0.97;0.90;;;;;;;9.93;100.00;100511.56;5023029;28;20461;-55
2022/10/08 03:33:31;;;;;;;1.40;0.90;;;;;;;9.71;100.00;100503.16;5022635;28;20509;-56
2022/10/08 03:35:58;;;;;;;3.07;1.43;;;;;;;9.68;100.00;100500.59;5023490;28;20634;-56
2022/10/08 03:38:24;;;;;;;0.80;0.80;;;;;;;9.72;100.00;100504.91;5022591;28;20521;-56
2022/10/08 03:40:57;;;;;;;1.30;1.20;;;;;;;9.84;100.00;100509.09;5024504;28;20487;-56
2022/10/08 03:43:30;;;;;;;0.70;0.60;;;;;;;9.82;100.00;100510.03;5030624;28;20444;-56
2022/10/08 03:45:57;;;;;;;0.90;0.80;;;;;;;9.89;100.00;100519.63;5025446;28;20459;-56
2022/10/08 03:48:23;;;;;;;0.80;0.73;;;;;;;9.90;100.00;100524.03;5030943;28;20808;-56
2022/10/08 03:50:51;;;;;;;0.73;0.73;;;;;;;9.93;100.00;100522.16;5031078;28;20447;-56
2022/10/08 03:53:18;;;;;;;0.60;0.53;;;;;;;9.78;100.00;100523.38;5025522;28;20456;-56
2022/10/08 03:55:47;;;;;;;0.80;0.80;;;;;;;9.79;100.00;100525.13;5023928;28;20448;-56
2022/10/08 03:58:14;;;;;;;1.27;1.10;;;;;;;9.84;100.00;100525.03;5030410;28;20902;-56
2022/10/08 04:00:41;;;;;;;0.73;0.60;;;;;;;9.75;100.00;100525.25;5031600;28;20499;-56
2022/10/08 04:03:08;;;;;;;0.60;0.60;;;;;;;9.78;100.00;100534.00;5030779;28;20456;-56
2022/10/08 04:05:34;;;;;;;2.20;1.33;;;;;;;9.62;100.00;100537.03;5028723;28;20462;-56
2022/10/08 04:08:01;;;;;;;2.73;1.03;;;;;;;9.65;100.00;100529.00;5022400;28;20545;-56
2022/10/08 04:10:27;;;;;;;0.80;0.60;;;;;;;9.63;100.00;100541.41;5030635;28;20448;-56
2022/10/08 04:12:53;;;;;;;1.00;0.87;;;;;;;9.48;100.00;100532.88;5016346;28;20487;-56
2022/10/08 04:15:20;;;;;;;4.90;0.70;;;;;;;9.58;100.00;100527.34;5023515;28;20451;-56
2022/10/08 04:17:46;;;;;;;0.60;0.60;;;;;;;9.52;100.00;100533.66;5029868;28;20488;-56
2022/10/08 04:20:13;;;;;;;1.53;1.43;;;;;;;9.54;100.00;100537.16;5027948;28;20455;-56
2022/10/08 04:22:39;;;;;;;1.57;0.80;;;;;;;9.44;100.00;100535.59;5030376;28;20451;-56
2022/10/08 04:25:06;;;;;;;2.10;1.83;;;;;;;9.43;100.00;100534.72;5028855;28;20455;-56
2022/10/08 04:27:32;;;;;;;1.50;1.40;;;;;;;9.53;100.00;100535.41;5029894;28;20553;-56
2022/10/08 04:29:58;;;;;;;1.63;1.53;;;;;;;9.61;100.00;100536.16;5030632;28;20456;-56
2022/10/08 04:32:25;;;;;;;2.80;1.10;;;;;;;9.50;100.00;100536.34;5030244;28;20486;-56
2022/10/08 04:34:51;;;;;;;1.50;1.20;;;;;;;9.46;100.00;100533.81;5017657;28;20472;-56
2022/10/08 04:37:19;;;;;;;1.70;1.00;;;;;;;9.51;100.00;100529.28;5030172;28;20479;-56
2022/10/08 04:39:45;;;;;;;3.30;0.60;;;;;;;9.55;100.00;100540.69;5029869;28;20896;-56
2022/10/08 04:42:11;;;;;;;1.00;0.90;;;;;;;9.69;100.00;100538.63;5022423;28;20487;-56
2022/10/08 04:44:38;;;;;;;0.57;0.53;;;;;;;9.54;100.00;100541.59;5029959;28;20458;-56
2022/10/08 04:47:04;;;;;;;1.70;0.63;;;;;;;9.63;100.00;100542.28;5029015;28;20518;-56
2022/10/08 04:49:31;;;;;;;1.43;1.33;;;;;;;9.52;100.00;100541.63;5024171;28;20459;-56
2022/10/08 04:51:57;;;;;;;0.97;0.83;;;;;;;9.50;100.00;100539.00;5029006;28;20506;-56
2022/10/08 04:54:23;;;;;;;0.63;0.63;;;;;;;9.28;100.00;100550.06;5018163;28;20529;-56
2022/10/08 04:56:50;;;;;;;1.87;0.83;;;;;;;9.40;100.00;100553.34;5029968;28;20889;-56
2022/10/08 04:59:16;;;;;;;0.93;0.83;;;;;;;9.59;100.00;100559.16;5008835;28;20461;-56
2022/10/08 05:01:43;;;;;;;0.80;0.80;;;;;;;9.47;100.00;100568.28;5024019;28;20492;-56
2022/10/08 05:04:09;;;;;;;4.93;1.53;;;;;;;9.37;100.00;100561.38;5012222;28;20457;-56
2022/10/08 05:06:36;;;;;;;0.97;0.87;;;;;;;9.32;100.00;100568.56;5029667;28;20451;-56
2022/10/08 05:09:02;;;;;;;0.70;0.70;;;;;;;9.33;100.00;100572.97;5000093;28;20456;-56
2022/10/08 05:11:30;;;;;;;1.10;0.40;;;;;;;9.45;100.00;100572.69;5030068;28;20448;-57
2022/10/08 05:13:57;;;;;;;2.07;1.97;;;;;;;9.25;100.00;100568.69;5011431;28;20449;-56
2022/10/08 05:16:25;;;;;;;1.67;0.93;;;;;;;9.42;100.00;100583.38;5016606;28;20529;-56
2022/10/08 05:18:52;;;;;;;1.07;1.00;;;;;;;9.14;100.00;100575.06;5019455;28;20471;-56
2022/10/08 05:21:22;;;;;;;2.40;1.17;;;;;;;9.46;100.00;100570.94;5029453;28;20491;-56
2022/10/08 05:23:57;;;;;;;1.03;0.60;;;;;;;9.07;100.00;100568.13;5012053;28;20448;-56
2022/10/08 05:26:27;;;;;;;3.17;1.20;;;;;;;9.22;100.00;100576.72;5024381;28;20464;-56
2022/10/08 05:29:13;;;;;;;0.97;0.53;;;;;;;9.09;100.00;100586.66;5003630;28;20539;-56
2022/10/08 05:31:39;;;;;;;2.40;1.30;;;;;;;9.28;100.00;100580.13;5029666;28;20456;-56
2022/10/08 05:34:06;;;;;;;0.90;0.90;;;;;;;9.11;100.00;100587.50;5029531;28;20460;-56
2022/10/08 05:36:33;;;;;;;0.50;0.43;;;;;;;9.15;100.00;100578.59;5023319;28;20519;-56
2022/10/08 05:39:02;;;;;;;1.20;1.20;;;;;;;9.27;100.00;100588.97;5029637;28;20451;-56
2022/10/08 05:41:32;;;;;;;2.80;1.67;;;;;;;9.00;100.00;100589.47;5024779;28;20558;-56
2022/10/08 05:44:02;;;;;;;1.43;1.33;;;;;;;8.97;100.00;100582.44;5010890;28;20505;-56
2022/10/08 05:46:30;;;;;;;1.10;0.57;;;;;;;8.86;100.00;100592.34;5025703;28;20511;-56
2022/10/08 05:49:00;;;;;;;1.00;0.90;;;;;;;8.87;100.00;100596.75;5029612;28;20458;-56
2022/10/08 05:51:27;;;;;;;0.80;0.80;;;;;;;8.79;100.00;100588.94;5029359;28;20452;-56
2022/10/08 05:53:55;;;;;;;0.70;0.70;;;;;;;8.79;100.00;100596.03;5029084;28;21071;-56
2022/10/08 05:56:23;;;;;;;0.60;0.50;;;;;;;8.68;100.00;100601.50;5024665;28;20888;-56
2022/10/08 05:58:50;;;;;;;1.43;1.33;;;;;;;8.81;100.00;100608.34;5019802;28;20483;-58
2022/10/08 06:01:21;;;;;;;0.90;0.90;;;;;;;8.67;100.00;100599.75;5024729;28;20490;-57
2022/10/08 06:03:52;;;;;;;0.50;0.50;;;;;;;8.51;100.00;100604.41;5029201;28;20451;-57
2022/10/08 06:06:20;;;;;;;4.37;0.50;;;;;;;8.59;100.00;100604.28;5017876;28;20460;-57
2022/10/08 06:08:46;;;;;;;6.30;1.20;;;;;;;8.69;100.00;100612.97;5014554;28;20471;-57
2022/10/08 06:11:13;;;;;;;0.60;0.60;;;;;;;8.61;100.00;100613.06;5012287;28;20960;-57
2022/10/08 06:13:39;;;;;;;3.07;1.50;;;;;;;8.70;100.00;100620.88;5004167;28;20461;-56
2022/10/08 06:16:08;;;;;;;0.53;0.50;;;;;;;8.78;100.00;100618.13;5002666;28;20518;-56
2022/10/08 06:18:38;;;;;;;0.70;0.50;;;;;;;8.90;100.00;100617.91;5016215;28;20487;-56
2022/10/08 06:21:10;;;;;;;2.00;1.00;;;;;;;8.95;100.00;100621.38;4994503;28;20869;-56
2022/10/08 06:23:38;;;;;;;1.53;1.43;;;;;;;8.93;100.00;100628.47;5017605;28;20455;-57
2022/10/08 06:26:07;;;;;;;0.50;0.50;;;;;;;8.99;100.00;100620.41;5005322;28;20495;-57
2022/10/08 06:28:35;;;;;;;1.03;0.90;;;;;;;9.00;100.00;100630.13;5011180;28;20508;-56
2022/10/08 06:31:03;;;;;;;1.83;0.57;;;;;;;9.03;100.00;100631.84;5013129;28;20472;-57
2022/10/08 06:33:29;;;;;;;3.33;0.97;;;;;;;9.19;100.00;100628.91;5017524;28;20456;-57
2022/10/08 06:36:00;;;;;;;0.60;0.53;;;;;;;9.17;100.00;100624.53;4994465;28;20453;-57
2022/10/08 06:38:27;;;;;;;1.00;1.00;;;;;;;9.21;100.00;100628.88;5006171;28;20483;-57
2022/10/08 06:40:56;;;;;;;1.60;0.43;;;;;;;9.37;100.00;100629.47;5010972;28;20460;-56
2022/10/08 06:43:23;;;;;;;10.80;1.10;;;;;;;9.47;100.00;100636.38;5023742;28;20451;-57
2022/10/08 06:45:49;;;;;;;1.13;1.03;;;;;;;9.52;100.00;100645.13;5032457;28;20521;-57
2022/10/08 06:48:15;;;;;;;3.30;1.43;;;;;;;9.54;100.00;100651.28;5022937;28;20467;-56
2022/10/08 06:50:42;;;;;;;1.20;1.10;;;;;;;9.64;100.00;100650.19;5032212;28;20494;-53
2022/10/08 06:53:09;;;;;;;0.80;0.77;;;;;;;9.75;100.00;100652.66;5018738;28;20809;-56
2022/10/08 06:55:36;;;;;;;4.47;0.93;;;;;;;9.85;100.00;100655.97;5032628;28;20535;-56
2022/10/08 06:58:04;;;;;;;1.30;1.07;;;;;;;10.02;100.00;100656.53;5031388;28;20881;-56
2022/10/08 07:00:30;;;;;;;0.70;0.70;;;;;;;10.13;100.00;100656.28;5009829;28;20961;-56
2022/10/08 07:02:57;;;;;;;0.70;0.70;;;;;;;10.05;100.00;100662.66;5029310;28;20490;-56
2022/10/08 07:05:24;;;;;;;4.43;1.30;;;;;;;10.10;100.00;100654.59;5017354;28;20950;-56
2022/10/08 07:07:50;;;;;;;0.73;0.73;;;;;;;10.24;100.00;100652.56;5014104;28;20546;-56
2022/10/08 07:10:17;;;;;;;1.53;1.40;;;;;;;10.23;100.00;100650.81;5024110;28;20468;-56
2022/10/08 07:12:44;;;;;;;0.70;0.50;;;;;;;10.38;100.00;100660.22;5006762;28;20448;-56
2022/10/08 07:15:11;;;;;;;0.70;0.70;;;;;;;10.45;100.00;100663.63;5010690;28;20968;-56
2022/10/08 07:17:37;;;;;;;0.60;0.60;;;;;;;10.47;100.00;100661.81;5004683;28;20482;-56
2022/10/08 07:20:04;;;;;;;2.03;1.70;;;;;;;10.52;100.00;100665.22;5014465;28;20462;-56
2022/10/08 07:22:31;;;;;;;0.70;0.70;;;;;;;11.05;100.00;100663.97;5005237;28;20501;-56
2022/10/08 07:24:57;;;;;;;1.60;1.50;;;;;;;11.01;100.00;100669.44;5016991;28;20459;-56
2022/10/08 07:27:24;;;;;;;1.10;1.00;;;;;;;11.10;100.00;100669.19;5031608;28;20471;-56
2022/10/08 07:29:50;;;;;;;1.60;1.50;;;;;;;11.17;100.00;100676.13;5031652;28;20868;-55
2022/10/08 07:32:16;;;;;;;2.33;2.13;;;;;;;11.33;100.00;100677.47;5031217;28;20876;-56
2022/10/08 07:34:43;;;;;;;13.87;2.30;;;;;;;11.45;100.00;100676.28;5031492;28;20558;-56
2022/10/08 07:37:09;;;;;;;3.73;1.47;;;;;;;11.53;100.00;100683.16;5030772;28;21055;-56
2022/10/08 07:39:36;;;;;;;3.60;2.40;;;;;;;11.57;100.00;100681.28;5031250;28;20558;-56
2022/10/08 07:42:02;;;;;;;2.23;1.53;;;;;;;11.62;100.00;100681.16;5031160;28;20499;-56
2022/10/08 07:44:28;;;;;;;2.10;1.43;;;;;;;11.83;100.00;100681.50;5013006;28;20481;-56
2022/10/08 07:46:55;;;;;;;8.90;1.00;;;;;;;11.96;100.00;100684.69;5030826;28;20524;-56
2022/10/08 07:49:21;;;;;;;1.40;1.23;;;;;;;12.15;100.00;100680.59;5031212;28;20451;-56
2022/10/08 07:51:48;;;;;;;4.13;0.97;;;;;;;12.34;100.00;100686.28;5030457;28;20827;-56
2022/10/08 07:54:17;;;;;;;1.53;1.43;;;;;;;12.27;100.00;100689.16;5030983;28;20517;-55
2022/10/08 07:56:43;;;;;;;7.40;1.93;;;;;;;12.44;100.00;100693.06;5030762;28;20997;-57
2022/10/08 07:59:13;;;;;;;1.00;0.70;;;;;;;12.48;100.00;100690.31;5030708;28;20459;-56
2022/10/08 08:01:41;;;;;;;1.97;1.87;;;;;;;12.67;100.00;100696.84;5030774;28;20588;-56
2022/10/08 08:04:09;;;;;;;1.37;0.83;;;;;;;12.77;100.00;100698.31;5030918;28;20451;-56
2022/10/08 08:06:48;;;;;;;2.30;1.03;;;;;;;12.95;100.00;100699.53;5030867;28;20460;-56
2022/10/08 08:09:15;;;;;;;15.07;1.70;;;;;;;13.18;100.00;100697.03;5030911;28;20452;-56
2022/10/08 08:11:41;;;;;;;1.43;1.10;;;;;;;12.95;100.00;100702.19;5029600;28;20458;-56
2022/10/08 08:14:08;;;;;;;1.17;1.07;;;;;;;13.07;100.00;100696.47;5014719;28;20875;-56
2022/10/08 08:16:34;;;;;;;7.83;1.10;;;;;;;13.10;100.00;100700.81;5030660;28;20466;-56
2022/10/08 08:19:02;;;;;;;2.40;0.67;;;;;;;13.20;100.00;100703.19;5027579;28;20452;-56
2022/10/08 08:21:34;;;;;;;1.73;1.63;;;;;;;13.19;100.00;100708.56;5021523;28;20491;-56
2022/10/08 08:24:07;;;;;;;11.13;1.03;;;;;;;13.40;100.00;100709.66;5030914;28;20451;-56
2022/10/08 08:26:36;;;;;;;9.23;1.60;;;;;;;13.44;100.00;100719.31;5030798;28;20459;-55
2022/10/08 08:29:15;;;;;;;2.47;2.33;;;;;;;13.44;100.00;100717.53;5030501;28;20459;-55
2022/10/08 08:31:44;;;;;;;1.80;1.70;;;;;;;13.43;100.00;100710.44;5030695;28;20454;-56
2022/10/08 08:34:20;;;;;;;1.27;1.27;;;;;;;13.61;100.00;100720.50;5030714;28;20966;-56
2022/10/08 08:36:48;;;;;;;10.77;1.60;;;;;;;14.11;100.00;100707.13;5030321;28;20505;-56
2022/10/08 08:39:20;;;;;;;2.20;1.00;;;;;;;14.05;98.88;100712.72;5030541;28;20486;-56
2022/10/08 08:42:01;;;;;;;8.63;1.77;;;;;;;14.20;98.92;100719.31;5030181;28;20561;-56
2022/10/08 08:44:39;;;;;;;14.93;1.93;;;;;;;14.32;97.80;100713.50;5030110;28;20458;-56
2022/10/08 08:47:10;;;;;;;3.80;0.97;;;;;;;14.37;97.82;100716.88;5006033;28;20480;-56
2022/10/08 08:49:46;;;;;;;0.93;0.80;;;;;;;14.40;98.36;100708.75;5030532;28;20526;-56
2022/10/08 08:52:16;;;;;;;1.00;0.80;;;;;;;14.49;98.50;100727.13;5030338;28;20474;-56
2022/10/08 08:54:48;;;;;;;23.27;1.23;;;;;;;14.93;97.51;100727.22;5030535;28;20518;-56
2022/10/08 08:57:40;;;;;;;9.13;1.80;;;;;;;14.81;98.36;100722.38;5030747;28;20892;-55
2022/10/08 09:00:15;;;;;;;0.60;0.50;;;;;;;14.95;97.16;100727.19;5007416;28;20525;-55
2022/10/08 09:03:02;;;;;;;0.77;0.77;;;;;;;15.13;96.15;100729.13;5017019;28;20490;-55
2022/10/08 09:05:32;;;;;;;6.10;0.70;;;;;;;15.32;95.87;100737.28;5030511;28;20562;-55
2022/10/08 09:08:22;;;;;;;0.60;0.40;;;;;;;15.22;95.63;100746.63;5030578;28;20502;-55
2022/10/08 09:10:54;;;;;;;2.73;1.23;;;;;;;15.10;95.38;100743.50;5017203;28;20478;-56
2022/10/08 09:13:25;;;;;;;2.80;0.50;;;;;;;15.21;95.31;100740.38;5016341;28;20527;-55
2022/10/08 09:15:54;;;;;;;0.80;0.80;;;;;;;15.54;94.74;100753.34;5027418;28;20882;-55
2022/10/08 09:18:21;;;;;;;2.20;0.90;;;;;;;15.45;94.61;100753.72;5030096;28;20526;-55
2022/10/08 09:20:48;;;;;;;2.27;1.10;;;;;;;15.66;94.06;100755.56;5030096;28;20463;-56
2022/10/08 09:23:18;;;;;;;4.93;1.30;;;;;;;15.97;93.65;100747.06;5030026;28;20553;-56
2022/10/08 09:26:12;;;;;;;20.33;0.40;;;;;;;16.03;93.01;100743.22;5030465;28;20459;-56
2022/10/08 09:28:49;;;;;;;0.50;0.47;;;;;;;16.28;91.79;100742.06;5017621;28;20512;-56
2022/10/08 09:31:40;;;;;;;0.50;0.50;;;;;;;16.65;91.18;100758.34;5030200;28;20501;-56
2022/10/08 09:34:10;;;;;;;0.50;0.40;;;;;;;16.59;89.96;100759.50;5005709;28;20456;-55
2022/10/08 09:36:58;;;;;;;4.93;0.90;;;;;;;16.55;89.36;100757.88;5017033;28;20465;-56
2022/10/08 09:39:29;;;;;;;2.97;1.33;;;;;;;16.63;89.44;100766.47;5030158;28;20498;-55
2022/10/08 09:42:18;;;;;;;1.23;0.80;;;;;;;16.75;89.69;100773.13;4994258;28;20483;-56
2022/10/08 09:44:47;;;;;;;0.70;0.40;;;;;;;16.89;89.43;100776.03;5020240;28;20552;-56
2022/10/08 09:47:16;;;;;;;1.13;1.13;;;;;;;17.06;88.54;100785.97;5004355;28;20477;-55
2022/10/08 09:49:48;;;;;;;0.60;0.50;;;;;;;16.50;90.37;100784.94;5002819;28;20469;-55
2022/10/08 09:52:22;;;;;;;1.20;0.67;;;;;;;16.58;90.51;100795.31;5009915;28;20430;-56
2022/10/08 09:54:54;;;;;;;0.60;0.50;;;;;;;16.60;90.49;100780.03;5015735;28;20456;-56
2022/10/08 09:57:21;;;;;;;0.50;0.40;;;;;;;16.83;90.14;100792.41;4996891;28;20543;-55
2022/10/08 09:59:58;;;;;;;0.67;0.53;;;;;;;16.80;89.80;100798.78;5003295;28;21866;-55
2022/10/08 10:02:30;;;;;;;4.83;0.97;;;;;;;16.85;90.24;100794.06;5006523;28;20488;-56
2022/10/08 10:04:58;;;;;;;2.03;1.47;;;;;;;16.79;90.06;100801.56;4994806;28;20488;-55
2022/10/08 10:07:42;;;;;;;4.00;0.77;;;;;;;16.73;90.72;100799.16;5005340;28;20481;-51
2022/10/08 10:10:35;;;;;;;1.53;0.70;;;;;;;16.59;90.13;100803.31;5019430;28;20457;-55
2022/10/08 10:13:16;;;;;;;1.20;0.80;;;;;;;16.58;90.94;100803.34;5010178;28;20457;-56
2022/10/08 10:15:52;;;;;;;7.60;1.17;;;;;;;16.64;91.09;100797.72;5006832;28;20515;-55
2022/10/08 10:18:24;;;;;;;0.80;0.60;;;;;;;16.73;90.84;100800.03;5008746;28;20531;-56
2022/10/08 10:20:58;;;;;;;0.67;0.60;;;;;;;16.87;90.20;100794.91;5001887;28;20484;-56
2022/10/08 10:23:31;;;;;;;0.80;0.57;;;;;;;17.17;88.63;100807.81;5010978;28;20480;-55
2022/10/08 10:26:26;;;;;;;0.73;0.60;;;;;;;17.24;88.46;100806.56;5002694;28;20952;-55
2022/10/08 10:28:59;;;;;;;0.53;0.40;;;;;;;17.24;88.74;100806.56;5002814;28;20476;-56
2022/10/08 10:31:49;;;;;;;2.60;0.70;;;;;;;17.35;88.14;100804.25;5011641;28;20462;-56
2022/10/08 10:34:21;;;;;;;0.80;0.80;;;;;;;17.13;89.13;100806.22;5006976;28;20471;-55
2022/10/08 10:36:51;;;;;;;0.83;0.67;;;;;;;16.98;89.16;100812.31;5026300;28;21065;-55
2022/10/08 10:39:52;;;;;;;0.50;0.40;;;;;;;16.97;88.67;100803.38;5001523;28;20432;-55
2022/10/08 10:42:30;;;;;;;0.80;0.63;;;;;;;17.20;87.50;100815.75;5003683;28;20491;-55
2022/10/08 10:45:17;;;;;;;0.50;0.40;;;;;;;17.00;86.59;100813.13;5026034;28;20451;-56
2022/10/08 10:47:43;;;;;;;3.90;0.77;;;;;;;17.12;87.20;100816.09;5018867;28;20479;-55
2022/10/08 10:50:14;;;;;;;0.70;0.60;;;;;;;16.91;86.45;100809.06;5028857;28;20870;-56
2022/10/08 10:53:13;;;;;;;9.93;0.83;;;;;;;17.10;87.09;100811.72;5029212;28;20502;-57
2022/10/08 10:55:51;;;;;;;1.20;0.67;;;;;;;17.09;86.93;100820.75;5004489;28;20514;-56
2022/10/08 10:58:29;;;;;;;20.03;0.80;;;;;;;17.17;86.92;100824.81;5025611;28;20510;-57
2022/10/08 11:01:24;;;;;;;1.43;0.93;;;;;;;17.17;87.10;100821.25;4998598;28;20465;-57
2022/10/08 11:04:07;;;;;;;6.73;1.43;;;;;;;17.20;87.08;100820.25;5019825;28;20578;-56
2022/10/08 11:06:55;;;;;;;0.80;0.80;;;;;;;17.22;87.21;100829.97;5023850;28;20460;-56
2022/10/08 11:09:52;;;;;;;1.07;0.90;;;;;;;17.38;86.24;100830.09;5022203;28;20807;-57
2022/10/08 11:12:47;;;;;;;3.03;0.63;;;;;;;17.58;85.65;100826.47;5009221;28;20499;-57
2022/10/08 11:15:43;;;;;;;2.53;1.10;;;;;;;17.30;85.74;100821.56;5008416;28;20495;-57
2022/10/08 11:18:21;;;;;;;2.93;0.73;;;;;;;17.39;85.75;100835.41;4965877;28;20487;-56
2022/10/08 11:21:25;;;;;;;1.60;1.13;;;;;;;17.58;84.88;100831.84;5005793;28;20455;-56
2022/10/08 11:24:04;;;;;;;7.53;1.00;;;;;;;17.53;84.92;100826.66;4995846;28;20491;-56
2022/10/08 11:26:46;;;;;;;4.83;0.40;;;;;;;17.37;85.76;100834.59;5015444;28;20459;-57
2022/10/08 11:29:25;;;;;;;4.37;0.50;;;;;;;17.44;84.65;100827.13;5002517;28;20462;-56
2022/10/08 11:31:52;;;;;;;0.50;0.40;;;;;;;17.73;83.34;100833.81;5002032;28;20453;-56
2022/10/08 11:34:32;;;;;;;0.50;0.40;;;;;;;17.52;83.96;100833.00;5007920;28;20457;-56
2022/10/08 11:37:19;;;;;;;32.87;1.03;;;;;;;17.51;83.79;100833.94;5022533;28;20475;-56
2022/10/08 11:40:17;;;;;;;10.13;0.73;;;;;;;17.57;84.17;100838.16;5015897;28;20526;-57
2022/10/08 11:42:51;;;;;;;24.90;1.23;;;;;;;17.33;84.95;100834.84;5032217;28;20495;-58
2022/10/08 11:45:24;;;;;;;2.30;0.60;;;;;;;17.59;84.70;100839.81;5009896;28;20456;-56